createdAt,value
2018-02-14T00:00:00.885Z,1.68
2018-02-14T00:00:39.079Z,1.65
2018-02-14T00:01:56.402Z,1.76
2018-02-14T00:04:06.136Z,1.65
2018-02-14T00:06:17.105Z,1.65
2018-02-14T00:09:33.305Z,1.65
2018-02-14T00:10:36.486Z,1.68
2018-02-14T00:11:43.389Z,1.71
2018-02-14T00:12:50.529Z,1.68
2018-02-14T00:13:59.351Z,1.64
2018-02-14T00:14:59.042Z,1.65
2018-02-14T00:16:04.390Z,1.65
2018-02-14T00:17:08.888Z,1.61
2018-02-14T00:18:13.910Z,1.72
2018-02-14T00:19:19.447Z,1.62
2018-02-14T00:20:37.273Z,1.65
2018-02-14T00:21:30.932Z,1.68
2018-02-14T00:23:44.674Z,1.65
2018-02-14T00:24:40.886Z,1.64
2018-02-14T00:25:50.933Z,1.62
2018-02-14T00:27:01.385Z,1.61
2018-02-14T00:28:07.017Z,1.60
2018-02-14T00:29:10.358Z,1.58
2018-02-14T00:30:22.392Z,1.57
2018-02-14T00:31:22.296Z,1.64
2018-02-14T00:32:31.212Z,1.54
2018-02-14T00:33:32.448Z,1.62
2018-02-14T00:34:36.662Z,1.51
2018-02-14T00:38:55.224Z,1.58
2018-02-14T00:42:21.758Z,1.47
2018-02-14T00:47:42.068Z,1.51
2018-02-14T00:49:47.849Z,1.47
2018-02-14T00:54:08.532Z,1.51
2018-02-14T00:55:17.241Z,1.47
2018-02-14T00:57:38.348Z,1.58
2018-02-14T00:58:40.405Z,1.52
2018-02-14T00:59:37.546Z,1.51
2018-02-14T01:01:57.736Z,1.50
2018-02-14T01:03:07.056Z,1.44
2018-02-14T01:03:56.311Z,1.39
2018-02-14T01:06:24.290Z,1.40
2018-02-14T01:07:19.175Z,1.47
2018-02-14T01:08:42.318Z,1.42
2018-02-14T01:09:26.461Z,1.36
2018-02-14T01:10:35.267Z,1.34
2018-02-14T01:11:32.307Z,1.34
2018-02-14T01:12:53.815Z,1.39
2018-02-14T01:15:00.178Z,1.29
2018-02-14T01:16:08.479Z,1.26
2018-02-14T01:19:24.685Z,1.25
2018-02-14T01:21:33.907Z,1.16
2018-02-14T01:22:34.733Z,1.10
2018-02-14T01:23:37.507Z,1.22
2018-02-14T01:24:46.729Z,1.08
2018-02-14T01:25:58.206Z,1.15
2018-02-14T01:26:50.019Z,1.06
2018-02-14T01:27:59.857Z,1.07
2018-02-14T01:29:06.521Z,1.06
2018-02-14T01:30:16.358Z,0.98
2018-02-14T01:31:17.805Z,1.00
2018-02-14T01:33:32.045Z,1.00
2018-02-14T01:35:42.405Z,0.97
2018-02-14T01:36:48.963Z,0.94
2018-02-14T01:37:53.067Z,0.94
2018-02-14T01:38:55.634Z,0.98
2018-02-14T01:40:02.605Z,0.96
2018-02-14T01:41:06.091Z,0.89
2018-02-14T01:42:19.103Z,0.88
2018-02-14T01:43:18.701Z,0.86
2018-02-14T01:44:26.593Z,0.83
2018-02-14T01:45:28.648Z,0.86
2018-02-14T01:46:38.076Z,0.85
2018-02-14T01:47:46.787Z,0.89
2018-02-14T01:48:47.825Z,0.86
2018-02-14T01:49:55.506Z,0.85
2018-02-14T01:50:58.690Z,0.90
2018-02-14T01:52:05.246Z,0.83
2018-02-14T01:53:12.728Z,0.86
2018-02-14T01:54:13.453Z,0.88
2018-02-14T01:56:32.103Z,0.92
2018-02-14T01:57:31.292Z,0.97
2018-02-14T01:58:45.943Z,0.92
2018-02-14T02:02:08.799Z,0.92
2018-02-14T02:03:02.867Z,0.97
2018-02-14T02:04:07.992Z,0.98
2018-02-14T02:05:11.584Z,0.97
2018-02-14T02:07:21.020Z,0.98
2018-02-14T02:08:31.061Z,1.01
2018-02-14T02:10:33.636Z,0.98
2018-02-14T02:11:44.291Z,1.00
2018-02-14T02:12:45.220Z,1.00
2018-02-14T02:13:55.167Z,1.04
2018-02-14T02:15:11.961Z,1.04
2018-02-14T02:16:05.312Z,1.01
2018-02-14T02:18:17.227Z,1.14
2018-02-14T02:19:21.102Z,1.08
2018-02-14T02:20:28.791Z,1.07
2018-02-14T02:21:32.379Z,1.16
2018-02-14T02:22:39.352Z,1.18
2018-02-14T02:23:48.165Z,1.14
2018-02-14T02:25:56.373Z,1.26
2018-02-14T02:26:55.967Z,1.26
2018-02-14T02:29:28.241Z,1.24
2018-02-14T02:30:16.571Z,1.25
2018-02-14T02:31:20.778Z,1.24
2018-02-14T02:32:32.149Z,1.25
2018-02-14T02:33:35.743Z,1.25
2018-02-14T02:34:43.380Z,1.33
2018-02-14T02:36:00.844Z,1.32
2018-02-14T02:36:44.364Z,1.32
2018-02-14T02:37:47.339Z,1.28
2018-02-14T02:38:53.703Z,1.32
2018-02-14T02:40:17.768Z,1.32
2018-02-14T02:41:18.286Z,1.28
2018-02-14T02:42:09.691Z,1.32
2018-02-14T02:43:25.366Z,1.26
2018-02-14T02:44:33.975Z,1.29
2018-02-14T02:45:44.118Z,1.32
2018-02-14T02:46:42.692Z,1.26
2018-02-14T02:47:47.513Z,1.29
2018-02-14T02:48:48.135Z,1.26
2018-02-14T02:49:57.358Z,1.25
2018-02-14T02:50:54.395Z,1.28
2018-02-14T02:52:10.376Z,1.25
2018-02-14T02:53:08.745Z,1.28
2018-02-14T02:54:15.102Z,1.28
2018-02-14T02:55:28.114Z,1.22
2018-02-14T02:57:36.841Z,1.21
2018-02-14T02:58:56.910Z,1.21
2018-02-14T03:00:57.229Z,1.16
2018-02-14T03:02:06.963Z,1.15
2018-02-14T03:03:08.610Z,1.16
2018-02-14T03:04:09.436Z,1.10
2018-02-14T03:07:16.726Z,1.01
2018-02-14T03:08:26.871Z,0.97
2018-02-14T03:10:40.299Z,0.97
2018-02-14T03:11:42.254Z,0.89
2018-02-14T03:12:51.782Z,0.83
2018-02-14T03:14:02.645Z,0.85
2018-02-14T03:14:59.373Z,0.82
2018-02-14T03:16:08.086Z,0.88
2018-02-14T03:17:16.185Z,0.85
2018-02-14T03:18:25.711Z,0.89
2018-02-14T03:19:26.542Z,0.86
2018-02-14T03:20:35.043Z,0.85
2018-02-14T03:21:40.581Z,0.83
2018-02-14T03:22:47.552Z,0.86
2018-02-14T03:23:39.164Z,0.89
2018-02-14T03:25:56.276Z,0.92
2018-02-14T03:27:02.121Z,0.75
2018-02-14T03:28:07.144Z,0.82
2018-02-14T03:29:29.686Z,0.76
2018-02-14T03:30:20.265Z,0.75
2018-02-14T03:31:23.146Z,0.72
2018-02-14T03:32:25.193Z,0.75
2018-02-14T03:33:32.985Z,0.60
2018-02-14T03:34:54.702Z,0.71
2018-02-14T03:35:51.327Z,0.67
2018-02-14T03:36:51.539Z,0.67
2018-02-14T03:37:53.901Z,0.61
2018-02-14T03:39:10.704Z,0.60
2018-02-14T03:40:04.668Z,0.64
2018-02-14T03:41:11.334Z,0.52
2018-02-14T03:42:14.205Z,0.49
2018-02-14T03:43:25.886Z,0.52
2018-02-14T03:44:32.345Z,0.46
2018-02-14T03:45:39.211Z,0.41
2018-02-14T03:46:47.315Z,0.30
2018-02-14T03:47:42.707Z,0.34
2018-02-14T03:48:57.977Z,0.38
2018-02-14T03:52:14.275Z,0.21
2018-02-14T03:53:09.983Z,0.28
2018-02-14T03:54:21.764Z,0.27
2018-02-14T03:55:24.029Z,0.27
2018-02-14T03:56:32.735Z,0.28
2018-02-14T03:57:44.518Z,0.16
2018-02-14T03:59:57.230Z,0.27
2018-02-14T04:00:52.525Z,0.33
2018-02-14T04:01:55.403Z,0.24
2018-02-14T04:03:08.106Z,0.30
2018-02-14T04:04:03.811Z,0.33
2018-02-14T04:05:24.400Z,0.33
2018-02-14T04:06:26.053Z,0.25
2018-02-14T04:07:26.056Z,0.24
2018-02-14T04:09:39.075Z,0.20
2018-02-14T04:11:56.085Z,0.13
2018-02-14T04:12:52.712Z,0.16
2018-02-14T04:14:06.857Z,0.12
2018-02-14T04:17:25.200Z,0.09
2018-02-14T04:18:24.287Z,0.02
2018-02-14T04:19:28.389Z,0.15
2018-02-14T04:20:32.390Z,0.18
2018-02-14T04:21:49.907Z,0.12
2018-02-14T04:22:43.466Z,0.12
2018-02-14T04:23:57.294Z,0.09
2018-02-14T04:25:04.576Z,0.03
2018-02-14T04:26:03.144Z,0.10
2018-02-14T04:27:20.253Z,0.06
2018-02-14T04:28:10.429Z,0.03
2018-02-14T04:29:18.322Z,0.05
2018-02-14T04:30:21.298Z,0.09
2018-02-14T04:31:36.257Z,0.00
2018-02-14T04:32:44.659Z,0.00
2018-02-14T04:33:42.004Z,-0.05
2018-02-14T04:34:41.703Z,0.10
2018-02-14T04:36:04.342Z,0.13
2018-02-14T04:37:01.789Z,0.31
2018-02-14T04:38:05.900Z,0.25
2018-02-14T04:39:11.531Z,0.33
2018-02-14T04:40:09.295Z,0.38
2018-02-14T04:41:25.265Z,0.27
2018-02-14T04:42:26.194Z,0.30
2018-02-14T04:43:37.158Z,0.33
2018-02-14T04:44:34.093Z,0.34
2018-02-14T04:45:35.638Z,0.31
2018-02-14T04:46:49.903Z,0.33
2018-02-14T04:47:50.509Z,0.31
2018-02-14T04:48:59.313Z,0.33
2018-02-14T04:50:01.469Z,0.24
2018-02-14T04:51:09.462Z,0.36
2018-02-14T04:53:19.512Z,0.34
2018-02-14T04:54:23.718Z,0.33
2018-02-14T04:55:32.019Z,0.33
2018-02-14T04:56:40.218Z,0.36
2018-02-14T04:57:43.092Z,0.41
2018-02-14T04:58:52.009Z,0.42
2018-02-14T04:59:57.034Z,0.36
2018-02-14T05:00:59.703Z,0.41
2018-02-14T05:03:07.295Z,0.28
2018-02-14T05:04:13.447Z,0.31
2018-02-14T05:05:20.213Z,0.33
2018-02-14T05:06:27.078Z,0.34
2018-02-14T05:07:35.996Z,0.36
2018-02-14T05:08:41.020Z,0.34
2018-02-14T05:09:41.846Z,0.38
2018-02-14T05:10:55.881Z,0.31
2018-02-14T05:11:56.304Z,0.38
2018-02-14T05:14:04.915Z,0.12
2018-02-14T05:15:07.173Z,0.15
2018-02-14T05:16:16.090Z,0.10
2018-02-14T05:17:22.444Z,0.12
2018-02-14T05:18:21.735Z,0.10
2018-02-14T05:19:33.722Z,0.03
2018-02-14T05:20:33.423Z,0.07
2018-02-14T05:21:47.153Z,0.07
2018-02-14T05:23:00.062Z,0.00
2018-02-14T05:25:09.910Z,0.12
2018-02-14T05:26:11.453Z,0.09
2018-02-14T05:27:04.800Z,0.07
2018-02-14T05:28:16.993Z,0.10
2018-02-14T05:29:26.727Z,0.07
2018-02-14T05:30:27.347Z,0.12
2018-02-14T05:31:30.631Z,0.06
2018-02-14T05:32:42.928Z,0.05
2018-02-14T05:33:34.538Z,0.18
2018-02-14T05:34:46.834Z,0.16
2018-02-14T05:36:01.074Z,0.10
2018-02-14T05:36:56.270Z,0.12
2018-02-14T05:38:06.002Z,0.05
2018-02-14T05:39:14.610Z,0.09
2018-02-14T05:40:10.319Z,0.07
2018-02-14T05:43:33.275Z,0.16
2018-02-14T05:45:37.591Z,0.12
2018-02-14T05:46:49.916Z,0.12
2018-02-14T05:47:51.326Z,0.18
2018-02-14T05:48:59.734Z,0.12
2018-02-14T05:50:11.205Z,0.10
2018-02-14T05:51:14.491Z,0.13
2018-02-14T05:52:32.826Z,0.07
2018-02-14T05:53:33.970Z,0.05
2018-02-14T05:54:28.131Z,0.09
2018-02-14T05:55:43.705Z,-0.04
2018-02-14T05:56:49.547Z,0.07
2018-02-14T05:57:44.331Z,0.12
2018-02-14T05:58:58.059Z,-0.04
2018-02-14T05:59:52.740Z,-0.06
2018-02-14T06:01:05.856Z,-0.09
2018-02-14T06:02:10.166Z,-0.18
2018-02-14T06:03:19.901Z,-0.22
2018-02-14T06:04:20.526Z,-0.16
2018-02-14T06:05:20.426Z,-0.34
2018-02-14T06:07:34.057Z,-0.26
2018-02-14T06:08:46.557Z,-0.24
2018-02-14T06:09:49.433Z,-0.19
2018-02-14T06:10:42.988Z,-0.24
2018-02-14T06:11:57.536Z,-0.23
2018-02-14T06:12:58.771Z,-0.39
2018-02-14T06:14:11.066Z,-0.33
2018-02-14T06:15:06.259Z,-0.24
2018-02-14T06:16:22.856Z,-0.29
2018-02-14T06:17:22.966Z,-0.30
2018-02-14T06:18:31.677Z,-0.30
2018-02-14T06:20:39.167Z,-0.34
2018-02-14T06:21:47.059Z,-0.36
2018-02-14T06:22:56.895Z,-0.26
2018-02-14T06:23:57.618Z,-0.24
2018-02-14T06:24:59.982Z,-0.27
2018-02-14T06:26:17.910Z,-0.37
2018-02-14T06:27:17.505Z,-0.26
2018-02-14T06:28:21.813Z,-0.29
2018-02-14T06:29:38.414Z,-0.24
2018-02-14T06:30:36.573Z,-0.23
2018-02-14T06:31:47.332Z,-0.26
2018-02-14T06:32:53.792Z,-0.23
2018-02-14T06:33:49.706Z,-0.26
2018-02-14T06:35:59.136Z,-0.26
2018-02-14T06:37:09.587Z,-0.26
2018-02-14T06:39:11.138Z,-0.23
2018-02-14T06:40:29.167Z,-0.22
2018-02-14T06:41:20.880Z,-0.22
2018-02-14T06:42:31.435Z,-0.18
2018-02-14T06:43:38.097Z,-0.16
2018-02-14T06:44:38.103Z,-0.18
2018-02-14T06:45:48.760Z,-0.12
2018-02-14T06:46:57.266Z,-0.13
2018-02-14T06:48:01.271Z,-0.12
2018-02-14T06:50:22.172Z,-0.05
2018-02-14T06:51:09.993Z,-0.06
2018-02-14T06:52:27.615Z,0.00
2018-02-14T06:53:24.444Z,0.03
2018-02-14T06:54:27.933Z,-0.06
2018-02-14T06:55:47.091Z,0.02
2018-02-14T06:56:39.722Z,0.00
2018-02-14T06:57:54.270Z,-0.04
2018-02-14T06:59:08.209Z,0.05
2018-02-14T06:59:53.055Z,0.02
2018-02-14T07:01:03.817Z,-0.04
2018-02-14T07:03:22.366Z,0.02
2018-02-14T07:04:20.634Z,-0.04
2018-02-14T07:05:24.938Z,0.06
2018-02-14T07:06:31.806Z,0.12
2018-02-14T07:07:38.163Z,0.09
2018-02-14T07:08:53.849Z,0.06
2018-02-14T07:10:57.852Z,0.12
2018-02-14T07:12:02.766Z,0.07
2018-02-14T07:13:12.501Z,0.07
2018-02-14T07:14:13.225Z,0.05
2018-02-14T07:15:12.120Z,0.13
2018-02-14T07:16:20.819Z,0.15
2018-02-14T07:17:37.516Z,0.25
2018-02-14T07:18:48.989Z,0.10
2018-02-14T07:19:43.981Z,0.30
2018-02-14T07:20:43.782Z,0.30
2018-02-14T07:21:58.441Z,0.23
2018-02-14T07:22:59.975Z,0.27
2018-02-14T07:24:07.048Z,0.23
2018-02-14T07:25:09.001Z,0.36
2018-02-14T07:26:01.840Z,0.33
2018-02-14T07:27:08.503Z,0.30
2018-02-14T07:28:30.117Z,0.31
2018-02-14T07:29:34.527Z,0.33
2018-02-14T07:30:36.478Z,0.31
2018-02-14T07:31:39.455Z,0.38
2018-02-14T07:32:43.253Z,0.43
2018-02-14T07:33:51.042Z,0.48
2018-02-14T07:34:50.739Z,0.48
2018-02-14T07:35:54.740Z,0.51
2018-02-14T07:37:03.248Z,0.52
2018-02-14T07:38:05.301Z,0.58
2018-02-14T07:39:18.723Z,0.58
2018-02-14T07:40:21.708Z,0.62
2018-02-14T07:41:31.540Z,0.60
2018-02-14T07:42:34.209Z,0.62
2018-02-14T07:43:34.420Z,0.67
2018-02-14T07:44:39.751Z,0.79
2018-02-14T07:45:45.190Z,0.71
2018-02-14T07:46:53.079Z,0.82
2018-02-14T07:49:06.814Z,0.86
2018-02-14T07:50:08.356Z,0.83
2018-02-14T07:51:17.476Z,0.86
2018-02-14T07:52:25.061Z,0.89
2018-02-14T07:55:37.063Z,1.03
2018-02-14T07:56:52.020Z,1.06
2018-02-14T07:57:51.003Z,1.04
2018-02-14T07:59:03.916Z,1.21
2018-02-14T07:59:54.296Z,1.14
2018-02-14T08:01:09.354Z,1.14
2018-02-14T08:02:04.957Z,1.26
2018-02-14T08:03:16.743Z,1.32
2018-02-14T08:04:23.507Z,1.29
2018-02-14T08:05:18.701Z,1.37
2018-02-14T08:06:33.359Z,1.37
2018-02-14T08:07:41.858Z,1.43
2018-02-14T08:08:41.149Z,1.50
2018-02-14T08:09:52.419Z,1.57
2018-02-14T08:10:52.221Z,1.54
2018-02-14T08:12:03.390Z,1.61
2018-02-14T08:13:05.036Z,1.58
2018-02-14T08:14:04.734Z,1.69
2018-02-14T08:15:15.597Z,1.73
2018-02-14T08:16:18.368Z,1.71
2018-02-14T08:17:35.066Z,1.79
2018-02-14T08:18:37.935Z,1.80
2018-02-14T08:19:35.080Z,1.87
2018-02-14T08:20:47.477Z,1.93
2018-02-14T08:21:51.478Z,1.94
2018-02-14T08:22:52.513Z,2.01
2018-02-14T08:23:57.227Z,2.02
2018-02-14T08:25:11.570Z,2.16
2018-02-14T08:26:10.757Z,2.20
2018-02-14T08:27:18.651Z,2.23
2018-02-14T08:28:29.408Z,2.22
2018-02-14T08:29:35.972Z,2.27
2018-02-14T08:31:35.369Z,2.35
2018-02-14T08:32:46.539Z,2.38
2018-02-14T08:33:55.354Z,2.41
2018-02-14T08:35:09.083Z,2.48
2018-02-14T08:36:18.515Z,2.53
2018-02-14T08:37:13.600Z,2.53
2018-02-14T08:39:22.949Z,2.56
2018-02-14T08:40:29.901Z,2.61
2018-02-14T08:41:46.406Z,2.67
2018-02-14T08:42:27.358Z,2.84
2018-02-14T08:43:47.537Z,2.87
2018-02-14T08:44:50.205Z,2.77
2018-02-14T08:46:00.763Z,2.92
2018-02-14T08:47:14.593Z,2.94
2018-02-14T08:48:07.634Z,2.94
2018-02-14T08:49:20.552Z,3.02
2018-02-14T08:50:16.665Z,3.06
2018-02-14T08:51:42.276Z,3.10
2018-02-14T08:53:06.648Z,3.13
2018-02-14T08:53:46.685Z,3.23
2018-02-14T08:55:22.433Z,3.28
2018-02-14T08:57:11.897Z,3.33
2018-02-14T08:58:32.897Z,3.34
2018-02-14T08:59:55.330Z,3.42
2018-02-14T09:02:29.032Z,3.44
2018-02-14T09:03:22.485Z,3.61
2018-02-14T09:04:34.289Z,3.61
2018-02-14T09:05:13.999Z,3.75
2018-02-14T09:06:56.708Z,3.72
2018-02-14T09:07:36.540Z,3.76
2018-02-14T09:08:30.306Z,3.83
2018-02-14T09:10:58.578Z,3.97
2018-02-14T09:11:40.155Z,3.92
2018-02-14T09:12:46.201Z,4.00
2018-02-14T09:15:30.965Z,4.06
2018-02-14T09:16:12.029Z,4.21
2018-02-14T09:17:20.225Z,4.10
2018-02-14T09:18:37.447Z,4.19
2018-02-14T09:19:25.257Z,4.14
2018-02-14T09:20:27.928Z,4.25
2018-02-14T09:21:29.674Z,4.22
2018-02-14T09:22:43.609Z,4.29
2018-02-14T09:23:55.805Z,4.33
2018-02-14T09:26:13.223Z,4.37
2018-02-14T09:28:17.947Z,4.43
2018-02-14T09:29:15.397Z,4.47
2018-02-14T09:30:16.322Z,4.51
2018-02-14T09:31:28.928Z,4.58
2018-02-14T09:32:35.692Z,4.58
2018-02-14T09:33:43.583Z,4.51
2018-02-14T09:34:48.299Z,4.54
2018-02-14T09:35:52.197Z,4.58
2018-02-14T09:37:02.456Z,4.55
2018-02-14T09:38:05.013Z,4.59
2018-02-14T09:39:02.669Z,4.72
2018-02-14T09:40:17.520Z,4.69
2018-02-14T09:41:21.214Z,4.69
2018-02-14T09:42:26.135Z,4.76
2018-02-14T09:43:28.541Z,4.62
2018-02-14T09:44:38.028Z,4.59
2018-02-14T09:45:41.943Z,4.50
2018-02-14T09:46:50.328Z,4.59
2018-02-14T09:47:47.473Z,4.61
2018-02-14T09:49:07.342Z,4.47
2018-02-14T09:49:45.029Z,4.59
2018-02-14T09:53:14.762Z,4.70
2018-02-14T09:54:26.335Z,4.50
2018-02-14T09:56:29.406Z,4.64
2018-02-14T09:58:46.521Z,4.64
2018-02-14T09:59:45.321Z,4.65
2018-02-14T10:01:10.703Z,4.73
2018-02-14T10:02:15.839Z,4.65
2018-02-14T10:03:14.607Z,4.72
2018-02-14T10:04:08.983Z,4.62
2018-02-14T10:05:37.047Z,4.69
2018-02-14T10:08:40.141Z,4.76
2018-02-14T10:09:35.845Z,4.89
2018-02-14T10:11:54.653Z,4.89
2018-02-14T10:12:56.143Z,4.88
2018-02-14T10:14:03.423Z,4.89
2018-02-14T10:15:15.306Z,4.96
2018-02-14T10:16:16.644Z,5.02
2018-02-14T10:17:23.510Z,5.05
2018-02-14T10:19:26.085Z,5.13
2018-02-14T10:20:26.212Z,5.01
2018-02-14T10:22:45.870Z,5.09
2018-02-14T10:23:52.942Z,5.10
2018-02-14T10:24:57.660Z,5.01
2018-02-14T10:26:09.238Z,5.01
2018-02-14T10:27:16.003Z,4.98
2018-02-14T10:28:10.379Z,5.13
2018-02-14T10:29:24.107Z,5.10
2018-02-14T10:30:17.061Z,5.07
2018-02-14T10:31:25.247Z,5.14
2018-02-14T10:32:37.443Z,5.14
2018-02-14T10:33:38.984Z,5.23
2018-02-14T10:34:42.478Z,5.22
2018-02-14T10:35:49.033Z,5.23
2018-02-14T10:36:55.797Z,5.31
2018-02-14T10:38:07.992Z,5.28
2018-02-14T10:39:02.876Z,5.27
2018-02-14T10:40:07.902Z,5.37
2018-02-14T10:41:12.926Z,5.32
2018-02-14T10:42:37.201Z,5.30
2018-02-14T10:43:35.571Z,5.35
2018-02-14T10:44:40.699Z,5.40
2018-02-14T10:45:44.206Z,5.41
2018-02-14T10:47:43.523Z,5.45
2018-02-14T10:48:53.014Z,5.57
2018-02-14T10:50:06.235Z,5.55
2018-02-14T10:51:02.243Z,5.63
2018-02-14T10:52:08.396Z,5.60
2018-02-14T10:55:34.120Z,5.75
2018-02-14T10:56:28.902Z,5.77
2018-02-14T10:57:33.312Z,5.77
2018-02-14T10:58:50.629Z,5.73
2018-02-14T10:59:47.664Z,5.83
2018-02-14T11:00:56.283Z,5.89
2018-02-14T11:03:06.219Z,6.06
2018-02-14T11:04:18.513Z,5.98
2018-02-14T11:05:16.577Z,6.13
2018-02-14T11:07:23.552Z,6.21
2018-02-14T11:08:47.017Z,6.18
2018-02-14T11:09:37.185Z,6.40
2018-02-14T11:10:41.186Z,6.44
2018-02-14T11:12:52.979Z,6.61
2018-02-14T11:14:04.557Z,6.59
2018-02-14T11:14:59.748Z,6.65
2018-02-14T11:16:02.017Z,6.68
2018-02-14T11:17:28.333Z,6.76
2018-02-14T11:18:24.550Z,6.86
2018-02-14T11:19:25.478Z,6.89
2018-02-14T11:20:30.094Z,6.87
2018-02-14T11:21:40.548Z,6.91
2018-02-14T11:22:41.175Z,6.94
2018-02-14T11:24:55.926Z,7.05
2018-02-14T11:25:59.314Z,7.15
2018-02-14T11:27:09.049Z,7.29
2018-02-14T11:28:15.414Z,7.31
2018-02-14T11:29:23.477Z,7.34
2018-02-14T11:31:39.593Z,7.37
2018-02-14T11:32:32.329Z,7.35
2018-02-14T11:36:09.527Z,7.42
2018-02-14T11:38:14.869Z,7.59
2018-02-14T11:39:10.265Z,7.55
2018-02-14T11:40:18.047Z,7.62
2018-02-14T11:42:43.763Z,7.62
2018-02-14T11:43:57.799Z,7.71
2018-02-14T11:44:48.386Z,7.59
2018-02-14T11:45:55.267Z,7.59
2018-02-14T11:47:04.990Z,7.62
2018-02-14T11:50:27.488Z,7.60
2018-02-14T11:51:44.340Z,7.69
2018-02-14T11:52:31.239Z,7.56
2018-02-14T11:53:47.016Z,7.72
2018-02-14T11:54:46.817Z,7.62
2018-02-14T11:55:54.710Z,7.77
2018-02-14T11:57:14.584Z,7.74
2018-02-14T11:58:38.449Z,7.82
2018-02-14T11:59:19.408Z,7.77
2018-02-14T12:00:24.740Z,7.77
2018-02-14T12:01:47.891Z,7.85
2018-02-14T12:02:54.758Z,7.82
2018-02-14T12:03:55.687Z,8.02
2018-02-14T12:05:04.403Z,7.99
2018-02-14T12:10:45.495Z,7.93
2018-02-14T12:11:52.363Z,8.00
2018-02-14T12:12:58.206Z,8.11
2018-02-14T12:14:04.155Z,7.96
2018-02-14T12:15:03.854Z,8.00
2018-02-14T12:16:20.760Z,8.17
2018-02-14T12:18:20.989Z,8.25
2018-02-14T12:19:25.283Z,8.17
2018-02-14T12:20:08.196Z,8.08
2018-02-14T12:22:09.431Z,8.02
2018-02-14T12:22:50.699Z,8.18
2018-02-14T12:24:20.811Z,8.20
2018-02-14T12:24:46.412Z,8.18
2018-02-14T12:26:03.011Z,8.29
2018-02-14T12:27:17.555Z,8.12
2018-02-14T12:28:22.377Z,8.18
2018-02-14T12:29:11.637Z,8.18
2018-02-14T12:30:40.312Z,8.26
2018-02-14T12:33:02.140Z,8.55
2018-02-14T12:34:05.522Z,8.63
2018-02-14T12:34:56.927Z,8.86
2018-02-14T12:36:14.034Z,8.97
2018-02-14T12:36:55.915Z,9.21
2018-02-14T12:37:52.032Z,9.38
2018-02-14T12:39:08.217Z,9.57
2018-02-14T12:41:25.640Z,10.46
2018-02-14T12:43:23.913Z,12.06
2018-02-14T12:44:33.447Z,12.97
2018-02-14T12:45:43.491Z,13.69
2018-02-14T12:46:41.243Z,14.19
2018-02-14T12:47:50.976Z,14.49
2018-02-14T12:49:00.105Z,14.91
2018-02-14T12:49:58.774Z,15.85
2018-02-14T12:51:07.177Z,16.85
2018-02-14T12:53:04.322Z,19.46
2018-02-14T12:54:28.600Z,20.59
2018-02-14T12:55:23.486Z,21.54
2018-02-14T12:56:34.040Z,22.25
2018-02-14T12:57:47.972Z,22.14
2018-02-14T12:58:37.236Z,22.67
2018-02-14T13:00:16.766Z,22.47
2018-02-14T13:00:53.729Z,22.06
2018-02-14T13:01:50.678Z,22.67
2018-02-14T13:03:02.037Z,22.69
2018-02-14T13:04:02.658Z,22.84
2018-02-14T13:05:09.525Z,23.38
2018-02-14T13:06:21.310Z,23.08
2018-02-14T13:08:45.900Z,20.59
2018-02-14T13:09:38.226Z,20.90
2018-02-14T13:10:35.980Z,21.67
2018-02-14T13:11:50.836Z,23.05
2018-02-14T13:12:52.697Z,23.27
2018-02-14T13:13:54.946Z,24.23
2018-02-14T13:15:12.163Z,24.90
2018-02-14T13:17:32.009Z,24.44
2018-02-14T13:18:58.975Z,22.97
2018-02-14T13:19:46.900Z,21.59
2018-02-14T13:20:30.317Z,20.51
2018-02-14T13:22:49.377Z,18.95
2018-02-14T13:23:43.446Z,18.18
2018-02-14T13:25:00.143Z,17.29
2018-02-14T13:26:04.975Z,16.83
2018-02-14T13:27:22.786Z,16.16
2018-02-14T13:27:58.837Z,15.86
2018-02-14T13:29:19.728Z,15.75
2018-02-14T13:31:01.417Z,15.89
2018-02-14T13:32:37.567Z,18.37
2018-02-14T13:33:47.917Z,20.13
2018-02-14T13:34:48.440Z,22.06
2018-02-14T13:35:58.068Z,23.79
2018-02-14T13:36:57.693Z,25.24
2018-02-14T13:37:56.034Z,26.40
2018-02-14T13:39:09.253Z,27.02
2018-02-14T13:40:06.289Z,27.16
2018-02-14T13:41:21.246Z,27.36
2018-02-14T13:42:36.007Z,27.48
2018-02-14T13:44:33.256Z,28.03
2018-02-14T13:46:10.634Z,28.62
2018-02-14T13:47:44.336Z,28.95
2018-02-14T13:48:22.942Z,29.37
2018-02-14T13:49:12.089Z,29.66
2018-02-14T13:50:22.947Z,29.33
2018-02-14T13:51:35.140Z,29.77
2018-02-14T13:52:36.787Z,29.75
2018-02-14T13:53:35.979Z,29.87
2018-02-14T13:54:52.161Z,29.56
2018-02-14T13:55:43.360Z,29.71
2018-02-14T13:56:48.384Z,29.38
2018-02-14T13:58:46.862Z,28.75
2018-02-14T13:59:13.998Z,28.51
2018-02-14T14:00:51.999Z,28.90
2018-02-14T14:01:27.633Z,29.78
2018-02-14T14:03:34.613Z,29.77
2018-02-14T14:04:40.867Z,26.80
2018-02-14T14:05:37.592Z,25.17
2018-02-14T14:06:48.556Z,23.15
2018-02-14T14:07:58.496Z,24.67
2018-02-14T14:08:50.838Z,25.97
2018-02-14T14:10:17.965Z,27.24
2018-02-14T14:11:04.560Z,27.95
2018-02-14T14:12:32.318Z,27.73
2018-02-14T14:13:28.329Z,27.64
2018-02-14T14:14:30.905Z,27.16
2018-02-14T14:15:39.914Z,26.81
2018-02-14T14:17:03.271Z,26.15
2018-02-14T14:17:54.163Z,25.86
2018-02-14T14:18:43.930Z,25.44
2018-02-14T14:19:47.417Z,25.71
2018-02-14T14:20:54.900Z,25.53
2018-02-14T14:22:08.943Z,25.12
2018-02-14T14:23:10.786Z,25.84
2018-02-14T14:24:11.320Z,26.25
2018-02-14T14:25:30.872Z,26.37
2018-02-14T14:26:35.590Z,26.24
2018-02-14T14:28:44.408Z,25.09
2018-02-14T14:29:43.291Z,23.98
2018-02-14T14:30:52.307Z,22.56
2018-02-14T14:32:08.808Z,21.14
2018-02-14T14:33:16.489Z,19.60
2018-02-14T14:34:24.586Z,17.92
2018-02-14T14:35:22.952Z,16.77
2018-02-14T14:36:29.309Z,15.82
2018-02-14T14:37:19.897Z,15.33
2018-02-14T14:38:33.114Z,14.61
2018-02-14T14:40:46.540Z,13.51
2018-02-14T14:43:00.788Z,12.79
2018-02-14T14:44:04.277Z,12.46
2018-02-14T14:45:08.482Z,12.11
2018-02-14T14:45:59.887Z,11.57
2018-02-14T14:47:09.929Z,11.21
2018-02-14T14:49:22.846Z,9.96
2018-02-14T14:50:33.399Z,9.93
2018-02-14T14:52:13.242Z,9.82
2018-02-14T14:52:57.584Z,9.78
2018-02-14T14:53:55.746Z,9.75
2018-02-14T14:54:51.655Z,9.64
2018-02-14T14:56:00.776Z,9.52
2018-02-14T14:57:09.694Z,9.35
2018-02-14T14:58:17.277Z,9.27
2018-02-14T14:59:23.327Z,9.16
2018-02-14T15:00:23.132Z,8.99
2018-02-14T15:01:26.617Z,8.96
2018-02-14T15:02:34.408Z,8.86
2018-02-14T15:04:56.848Z,8.69
2018-02-14T15:06:08.648Z,8.50
2018-02-14T15:07:59.634Z,8.26
2018-02-14T15:09:02.711Z,8.18
2018-02-14T15:10:12.250Z,8.17
2018-02-14T15:11:23.723Z,8.04
2018-02-14T15:12:22.596Z,8.03
2018-02-14T15:13:39.399Z,7.97
2018-02-14T15:14:35.103Z,7.78
2018-02-14T15:15:41.357Z,7.78
2018-02-14T15:16:44.439Z,7.67
2018-02-14T15:17:47.929Z,7.59
2018-02-14T15:19:04.069Z,7.52
2018-02-14T15:20:08.119Z,7.47
2018-02-14T15:21:08.325Z,7.44
2018-02-14T15:23:24.417Z,7.19
2018-02-14T15:24:43.981Z,7.34
2018-02-14T15:25:33.546Z,7.26
2018-02-14T15:26:42.458Z,7.19
2018-02-14T15:27:54.752Z,7.20
2018-02-14T15:29:01.829Z,7.02
2018-02-14T15:30:02.139Z,7.05
2018-02-14T15:31:13.110Z,7.09
2018-02-14T15:32:10.652Z,7.01
2018-02-14T15:33:02.674Z,6.99
2018-02-14T15:37:52.789Z,6.90
2018-02-14T15:39:01.997Z,6.89
2018-02-14T15:41:19.214Z,6.73
2018-02-14T15:42:47.893Z,6.79
2018-02-14T15:45:49.758Z,6.73
2018-02-14T15:46:49.561Z,6.80
2018-02-14T15:47:59.747Z,6.73
2018-02-14T15:49:07.579Z,6.68
2018-02-14T15:49:38.317Z,6.59
2018-02-14T15:51:10.893Z,6.61
2018-02-14T15:52:32.707Z,6.63
2018-02-14T15:54:19.407Z,6.54
2018-02-14T15:56:17.076Z,6.63
2018-02-14T15:56:56.084Z,6.50
2018-02-14T15:58:24.762Z,6.62
2018-02-14T15:59:16.576Z,6.53
2018-02-14T16:00:32.466Z,6.47
2018-02-14T16:01:33.385Z,6.47
2018-02-14T16:04:48.867Z,6.32
2018-02-14T16:06:03.620Z,6.40
2018-02-14T16:07:08.543Z,6.29
2018-02-14T16:08:13.361Z,6.36
2018-02-14T16:09:09.171Z,6.32
2018-02-14T16:10:36.932Z,6.36
2018-02-14T16:11:29.874Z,6.25
2018-02-14T16:13:48.418Z,6.19
2018-02-14T16:14:42.384Z,6.21
2018-02-14T16:15:41.162Z,6.25
2018-02-14T16:16:51.203Z,6.10
2018-02-14T16:17:35.236Z,6.18
2018-02-14T16:18:59.520Z,6.10
2018-02-14T16:19:54.705Z,6.06
2018-02-14T16:24:16.237Z,5.96
2018-02-14T16:25:32.639Z,6.06
2018-02-14T16:26:32.534Z,6.09
2018-02-14T16:27:38.479Z,5.96
2018-02-14T16:28:37.156Z,6.00
2018-02-14T16:29:38.289Z,5.89
2018-02-14T16:30:46.795Z,5.98
2018-02-14T16:32:09.748Z,5.92
2018-02-14T16:33:02.476Z,5.83
2018-02-14T16:34:13.048Z,5.86
2018-02-14T16:34:59.213Z,5.86
2018-02-14T16:36:14.989Z,5.82
2018-02-14T16:38:30.773Z,5.74
2018-02-14T16:39:25.969Z,5.67
2018-02-14T16:41:39.396Z,5.64
2018-02-14T16:42:49.134Z,5.70
2018-02-14T16:43:50.059Z,5.48
2018-02-14T16:44:54.674Z,5.53
2018-02-14T16:45:52.634Z,5.55
2018-02-14T16:47:20.296Z,5.49
2018-02-14T16:48:19.579Z,5.45
2018-02-14T16:49:18.672Z,5.40
2018-02-14T16:50:18.774Z,5.48
2018-02-14T16:51:20.624Z,5.46
2018-02-14T16:52:38.661Z,5.37
2018-02-14T16:53:35.178Z,5.38